Racine, Missouri
Current Conditions -  °F | °C
As of 12:53 AM on Sunday 26 Oct 2014 (Local Time) from KJLN Reporting Station
Clear Clear  
Wind Chill: 65°   Ceiling: Unl
Heat Index: 65°   Visibility: 10mi
Dew Point: 62°   Wind: 9mph
Humidity: 90%   Direction: 180°S
Pressure: 29.99"   Gusts: NA
Location:  36.9°N, 94.53°W
Report Text: KJLN 260553Z AUTO 18008KT 10SM CLR 18/17 A2999 RMK AO2 SLP147 T01830167 10228 20172 402830161 58008
Loading
Personal Weather Stations






























Interactive Weather Map
Tropical Storm Tracking
New forecast layout! Learn more

10-Day Weather Forecast

Advertisements
Track Severe Weather on mobile